Time;durP1;ratioP1;P1;durP2;ratioP2;P2;SDS_P1;SDS_P2;PMS_P1;PMS_P2;Temp;Humidity;BMP_temperature;BMP_pressure;BME280_temperature;BME280_humidity;BME280_pressure;Samples;Min_cycle;Max_cycle;Signal;HPM_P1;HPM_P2
2024/02/06 00:00:41;;;;;;;6.50;0.70;;;;;;;12.96;84.12;99280.20;106752;1286;58104;-58
2024/02/06 00:03:06;;;;;;;0.90;0.50;;;;;;;12.97;84.07;99289.83;106741;1286;58133;-58
2024/02/06 00:05:32;;;;;;;1.00;0.60;;;;;;;12.98;83.91;99293.88;106714;1286;58151;-58
2024/02/06 00:07:57;;;;;;;1.10;0.50;;;;;;;12.98;83.81;99298.13;106570;1286;58468;-58
2024/02/06 00:10:23;;;;;;;2.70;0.70;;;;;;;12.98;83.63;99298.98;106718;1286;58214;-58
2024/02/06 00:12:48;;;;;;;0.70;0.40;;;;;;;12.99;83.48;99300.86;106732;1285;58130;-58
2024/02/06 00:15:14;;;;;;;1.60;0.80;;;;;;;12.99;83.39;99298.25;106701;1286;58282;-58
2024/02/06 00:17:39;;;;;;;0.70;0.50;;;;;;;12.99;83.30;99307.01;106743;1286;58123;-58
2024/02/06 00:20:05;;;;;;;1.30;0.70;;;;;;;13.00;83.13;99312.04;106744;1286;58029;-58
2024/02/06 00:22:31;;;;;;;1.50;0.60;;;;;;;13.00;83.02;99315.28;106726;1286;58179;-58
2024/02/06 00:24:56;;;;;;;0.70;0.40;;;;;;;12.99;83.11;99316.80;106685;1286;58005;-58
2024/02/06 00:27:22;;;;;;;1.30;0.60;;;;;;;12.99;82.87;99321.26;106759;1285;58169;-58
2024/02/06 00:29:51;;;;;;;0.50;0.40;;;;;;;12.99;82.75;99326.76;106789;1286;58086;-58
2024/02/06 00:32:17;;;;;;;1.90;0.60;;;;;;;13.00;82.63;99336.21;106670;1287;74059;-58
2024/02/06 00:34:43;;;;;;;1.50;0.70;;;;;;;12.99;82.59;99345.31;106686;1286;58090;-58
2024/02/06 00:37:09;;;;;;;0.50;0.50;;;;;;;12.99;82.47;99355.98;106718;1286;58134;-58
2024/02/06 00:39:34;;;;;;;1.90;0.50;;;;;;;12.99;82.32;99362.69;106776;1285;58062;-58
2024/02/06 00:41:59;;;;;;;0.90;0.50;;;;;;;12.99;82.30;99367.39;106531;1288;59247;-58
2024/02/06 00:44:25;;;;;;;3.00;0.40;;;;;;;12.98;82.21;99370.00;106805;1285;58087;-58
2024/02/06 00:46:50;;;;;;;0.80;0.50;;;;;;;12.98;82.16;99374.87;106483;1286;58216;-58
2024/02/06 00:49:16;;;;;;;0.80;0.60;;;;;;;12.97;82.11;99370.50;106757;1285;58046;-58
2024/02/06 00:51:42;;;;;;;0.90;0.60;;;;;;;12.98;81.91;99369.52;106745;1286;58171;-58
2024/02/06 00:54:07;;;;;;;1.20;0.80;;;;;;;12.98;81.87;99371.91;106721;1286;58135;-58
2024/02/06 00:56:33;;;;;;;2.00;0.60;;;;;;;12.97;81.85;99375.97;106757;1286;58188;-58
2024/02/06 00:58:58;;;;;;;1.20;0.60;;;;;;;12.97;81.72;99380.62;106482;1286;60082;-58
2024/02/06 01:01:24;;;;;;;0.70;0.50;;;;;;;12.97;81.57;99371.65;106810;1287;58519;-58
2024/02/06 01:03:49;;;;;;;1.10;0.50;;;;;;;12.97;81.51;99378.19;106768;1286;58149;-58
2024/02/06 01:06:15;;;;;;;1.60;0.60;;;;;;;12.96;81.42;99382.59;106744;1286;58203;-58
2024/02/06 01:08:40;;;;;;;1.10;0.50;;;;;;;12.96;81.41;99386.96;106802;1286;58046;-58
2024/02/06 01:11:05;;;;;;;0.90;0.50;;;;;;;12.96;81.37;99390.44;106759;1286;58125;-58
2024/02/06 01:13:31;;;;;;;1.90;0.60;;;;;;;12.95;81.30;99395.11;106748;1285;58287;-57
2024/02/06 01:15:56;;;;;;;1.30;0.50;;;;;;;12.95;81.28;99401.76;106672;1286;58852;-58
2024/02/06 01:18:22;;;;;;;0.90;0.40;;;;;;;12.94;81.15;99398.09;106828;1286;58208;-58
2024/02/06 01:20:47;;;;;;;0.80;0.50;;;;;;;12.94;81.23;99405.40;106773;1286;73933;-58
2024/02/06 01:23:13;;;;;;;1.00;0.50;;;;;;;12.93;81.01;99415.02;106750;1286;58331;-58
2024/02/06 01:25:38;;;;;;;1.20;0.50;;;;;;;12.93;80.97;99430.02;106752;1286;58243;-58
2024/02/06 01:28:04;;;;;;;2.10;0.50;;;;;;;12.93;80.95;99436.67;106712;1287;58288;-58
2024/02/06 01:30:30;;;;;;;1.30;0.50;;;;;;;12.93;80.85;99446.14;106798;1286;58242;-58
2024/02/06 01:32:55;;;;;;;0.80;0.40;;;;;;;12.93;80.92;99446.36;106750;1286;74391;-58
2024/02/06 01:35:21;;;;;;;0.90;0.40;;;;;;;12.92;80.80;99453.83;106809;1285;58241;-58
2024/02/06 01:37:46;;;;;;;1.00;0.50;;;;;;;12.93;80.77;99461.58;106693;1286;58228;-58
2024/02/06 01:40:12;;;;;;;0.50;0.40;;;;;;;12.92;80.76;99469.70;106812;1285;58191;-58
2024/02/06 01:42:40;;;;;;;0.90;0.50;;;;;;;12.92;80.72;99471.05;106845;1286;58237;-57
2024/02/06 01:45:05;;;;;;;0.70;0.50;;;;;;;12.91;80.63;99474.80;106544;1286;73633;-58
2024/02/06 01:47:31;;;;;;;1.90;0.90;;;;;;;12.91;80.55;99471.55;106772;1286;58594;-58
2024/02/06 01:49:58;;;;;;;0.80;0.40;;;;;;;12.91;80.55;99479.62;106786;1286;58234;-58
2024/02/06 01:52:25;;;;;;;0.90;0.20;;;;;;;12.91;80.54;99491.15;106755;1286;58425;-58
2024/02/06 01:54:50;;;;;;;0.90;0.60;;;;;;;12.91;80.49;99486.65;106792;1285;58317;-58
2024/02/06 01:57:17;;;;;;;2.30;0.40;;;;;;;12.91;80.42;99486.71;106745;1285;58306;-58
2024/02/06 01:59:43;;;;;;;1.00;0.40;;;;;;;12.90;80.42;99494.52;106797;1285;58193;-58
2024/02/06 02:02:08;;;;;;;0.80;0.30;;;;;;;12.90;80.30;99492.56;106787;1286;59118;-58
2024/02/06 02:04:34;;;;;;;2.20;0.50;;;;;;;12.89;80.29;99505.83;106757;1285;58286;-58
2024/02/06 02:07:00;;;;;;;0.50;0.40;;;;;;;12.89;80.26;99512.92;106722;1285;73473;-57
2024/02/06 02:09:26;;;;;;;0.90;0.30;;;;;;;12.89;80.27;99522.08;106498;1285;58197;-58
2024/02/06 02:11:51;;;;;;;0.50;0.40;;;;;;;12.89;80.13;99528.88;106759;1285;58583;-57
2024/02/06 02:14:17;;;;;;;0.70;0.50;;;;;;;12.89;80.03;99538.93;106804;1285;58258;-58
2024/02/06 02:16:44;;;;;;;0.40;0.30;;;;;;;12.89;80.06;99543.27;106851;1285;58404;-58
2024/02/06 02:19:09;;;;;;;0.40;0.30;;;;;;;12.88;79.96;99544.79;106491;1287;58535;-58
2024/02/06 02:21:35;;;;;;;0.40;0.30;;;;;;;12.88;80.01;99547.92;106825;1285;58837;-58
2024/02/06 02:24:03;;;;;;;0.60;0.30;;;;;;;12.88;79.95;99545.06;106804;1285;74628;-58
2024/02/06 02:26:30;;;;;;;1.90;0.50;;;;;;;12.88;79.88;99537.81;106778;1285;74662;-58
2024/02/06 02:28:56;;;;;;;0.70;0.40;;;;;;;12.88;79.90;99552.15;106751;1285;73360;-58
2024/02/06 02:31:22;;;;;;;0.80;0.50;;;;;;;12.88;79.81;99548.95;106776;1285;58615;-58
2024/02/06 02:33:48;;;;;;;1.60;0.40;;;;;;;12.88;79.72;99556.86;106811;1285;58247;-58
2024/02/06 02:36:14;;;;;;;1.00;0.40;;;;;;;12.87;79.66;99556.85;106766;1285;58233;-58
2024/02/06 02:38:41;;;;;;;0.70;0.30;;;;;;;12.87;79.69;99565.15;106577;1285;58610;-58
2024/02/06 02:41:06;;;;;;;1.20;0.50;;;;;;;12.86;79.71;99568.62;106731;1285;58237;-59
2024/02/06 02:43:32;;;;;;;1.20;0.30;;;;;;;12.87;79.68;99568.23;106723;1285;58537;-58
2024/02/06 02:45:58;;;;;;;0.80;0.50;;;;;;;12.86;79.69;99571.23;106812;1287;58405;-58
2024/02/06 02:48:23;;;;;;;0.80;0.50;;;;;;;12.85;79.66;99573.67;106770;1285;74408;-58
2024/02/06 02:50:49;;;;;;;0.70;0.40;;;;;;;12.85;79.55;99574.06;106748;1285;58305;-58
2024/02/06 02:53:14;;;;;;;0.90;0.50;;;;;;;12.86;79.51;99577.45;106416;1285;58438;-58
2024/02/06 02:55:40;;;;;;;1.00;0.50;;;;;;;12.85;79.51;99574.97;106777;1285;58248;-58
2024/02/06 02:58:05;;;;;;;1.10;0.50;;;;;;;12.85;79.53;99581.30;106866;1285;58433;-58
2024/02/06 03:00:33;;;;;;;1.50;0.40;;;;;;;12.85;79.41;99582.77;106731;1286;59235;-58
2024/02/06 03:02:59;;;;;;;0.80;0.50;;;;;;;12.85;79.42;99586.92;106745;1286;62855;-58
2024/02/06 03:05:24;;;;;;;0.80;0.40;;;;;;;12.84;79.42;99587.05;106540;1285;58231;-58
2024/02/06 03:07:50;;;;;;;1.70;0.70;;;;;;;12.85;79.47;99595.31;106784;1285;58299;-58
2024/02/06 03:10:15;;;;;;;0.40;0.30;;;;;;;12.84;79.45;99597.00;106773;1285;58392;-58
2024/02/06 03:12:41;;;;;;;2.30;0.40;;;;;;;12.84;79.45;99600.89;106752;1287;58267;-58
2024/02/06 03:15:06;;;;;;;0.50;0.40;;;;;;;12.84;79.42;99603.00;106781;1285;58450;-58
2024/02/06 03:17:32;;;;;;;2.20;0.50;;;;;;;12.84;79.34;99606.41;106722;1285;58300;-58
2024/02/06 03:19:58;;;;;;;1.10;0.40;;;;;;;12.84;79.40;99604.69;106764;1285;58206;-58
2024/02/06 03:22:26;;;;;;;0.50;0.30;;;;;;;12.83;79.43;99606.05;106761;1286;58502;-58
2024/02/06 03:24:52;;;;;;;0.70;0.60;;;;;;;12.82;79.32;99605.84;106743;1285;58491;-58
2024/02/06 03:27:18;;;;;;;0.90;0.50;;;;;;;12.82;79.28;99610.87;106795;1285;58212;-58
2024/02/06 03:29:43;;;;;;;0.90;0.50;;;;;;;12.83;79.32;99610.27;106787;1286;58521;-58
2024/02/06 03:32:10;;;;;;;0.60;0.30;;;;;;;12.82;79.31;99614.65;106730;1286;58700;-58
2024/02/06 03:34:35;;;;;;;0.60;0.30;;;;;;;12.82;79.24;99628.24;106824;1285;58325;-58
2024/02/06 03:37:01;;;;;;;1.00;0.60;;;;;;;12.82;79.21;99634.18;106795;1285;59654;-58
2024/02/06 03:39:27;;;;;;;0.70;0.40;;;;;;;12.82;79.19;99636.63;106746;1286;58384;-58
2024/02/06 03:41:53;;;;;;;1.40;0.60;;;;;;;12.81;79.27;99649.50;106797;1285;59062;-58
2024/02/06 03:44:18;;;;;;;0.60;0.40;;;;;;;12.81;79.16;99652.73;106494;1286;59185;-58
2024/02/06 03:46:44;;;;;;;0.70;0.50;;;;;;;12.81;79.16;99660.77;106749;1286;58295;-58
2024/02/06 03:49:09;;;;;;;0.40;0.30;;;;;;;12.81;79.12;99662.16;106808;1286;58737;-57
2024/02/06 03:51:35;;;;;;;0.80;0.40;;;;;;;12.81;79.17;99664.92;106790;1286;58289;-58
2024/02/06 03:54:00;;;;;;;1.30;0.40;;;;;;;12.80;79.05;99668.77;106777;1285;58304;-57
2024/02/06 03:56:26;;;;;;;1.00;0.50;;;;;;;12.80;79.10;99667.98;106704;1287;58217;-58
2024/02/06 03:58:51;;;;;;;0.70;0.40;;;;;;;12.80;79.18;99669.59;106767;1286;58158;-58
2024/02/06 04:01:17;;;;;;;0.90;0.50;;;;;;;12.80;79.17;99669.44;106817;1286;58325;-58
2024/02/06 04:03:45;;;;;;;1.30;0.50;;;;;;;12.80;79.05;99676.15;106448;1286;58395;-58
2024/02/06 04:06:17;;;;;;;0.70;0.40;;;;;;;12.80;79.09;99675.45;106668;1287;62886;-58
2024/02/06 04:08:43;;;;;;;2.70;0.60;;;;;;;12.79;79.10;99673.39;106732;1286;60764;-58
2024/02/06 04:11:11;;;;;;;1.10;0.40;;;;;;;12.79;79.11;99678.31;106786;1286;58239;-58
2024/02/06 04:13:37;;;;;;;0.90;0.60;;;;;;;12.79;79.04;99681.34;106778;1285;74300;-58
2024/02/06 04:16:06;;;;;;;0.70;0.40;;;;;;;12.78;79.08;99682.33;106732;1285;73327;-58
2024/02/06 04:18:35;;;;;;;0.50;0.40;;;;;;;12.79;79.13;99683.19;106742;1285;62708;-58
2024/02/06 04:21:01;;;;;;;0.60;0.40;;;;;;;12.78;79.05;99687.86;106726;1287;61430;-58
2024/02/06 04:23:27;;;;;;;0.90;0.40;;;;;;;12.78;79.03;99680.77;106768;1285;58331;-58
2024/02/06 04:25:53;;;;;;;1.40;0.40;;;;;;;12.78;78.94;99687.86;106736;1287;58270;-58
2024/02/06 04:28:19;;;;;;;1.10;0.50;;;;;;;12.78;78.94;99690.84;106765;1286;58226;-58
2024/02/06 04:30:45;;;;;;;1.70;0.50;;;;;;;12.78;78.96;99702.39;106772;1286;58501;-58
2024/02/06 04:33:10;;;;;;;0.80;0.50;;;;;;;12.78;78.85;99704.30;106746;1286;58257;-58
2024/02/06 04:35:39;;;;;;;0.60;0.50;;;;;;;12.78;78.85;99700.83;106811;1286;58326;-58
2024/02/06 04:38:05;;;;;;;1.30;0.50;;;;;;;12.78;78.81;99702.36;106738;1286;73910;-58
2024/02/06 04:40:31;;;;;;;1.90;0.40;;;;;;;12.77;78.78;99704.10;106750;1287;58271;-58
2024/02/06 04:42:56;;;;;;;1.40;0.50;;;;;;;12.77;78.74;99706.42;106784;1286;58573;-58
2024/02/06 04:45:22;;;;;;;5.60;1.00;;;;;;;12.77;78.61;99712.64;106811;1286;58232;-56
2024/02/06 04:47:47;;;;;;;0.90;0.40;;;;;;;12.77;78.79;99711.73;106735;1288;58327;-57
2024/02/06 04:50:13;;;;;;;0.50;0.40;;;;;;;12.77;78.72;99711.39;106780;1286;58448;-58
2024/02/06 04:52:38;;;;;;;0.80;0.40;;;;;;;12.77;78.67;99708.80;106743;1286;58453;-58
2024/02/06 04:55:04;;;;;;;0.60;0.30;;;;;;;12.76;78.72;99712.70;106759;1285;58293;-58
2024/02/06 04:57:30;;;;;;;1.60;0.40;;;;;;;12.76;78.63;99716.86;106508;1286;58714;-58
2024/02/06 04:59:55;;;;;;;1.60;0.40;;;;;;;12.76;78.55;99724.54;106688;1286;58195;-58
2024/02/06 05:02:22;;;;;;;1.30;0.40;;;;;;;12.76;78.48;99721.46;106798;1285;58809;-58
2024/02/06 05:04:48;;;;;;;1.10;0.60;;;;;;;12.75;78.50;99723.53;106755;1286;73523;-58
2024/02/06 05:07:14;;;;;;;1.00;0.50;;;;;;;12.75;78.47;99731.32;106769;1286;58295;-58
2024/02/06 05:09:39;;;;;;;0.30;0.20;;;;;;;12.75;78.48;99729.70;106451;1287;58352;-58
2024/02/06 05:12:06;;;;;;;1.30;0.50;;;;;;;12.75;78.40;99725.52;106722;1289;58493;-58
2024/02/06 05:14:32;;;;;;;0.80;0.30;;;;;;;12.75;78.43;99726.52;106762;1286;58250;-58
2024/02/06 05:16:58;;;;;;;2.70;0.40;;;;;;;12.75;78.30;99737.49;106752;1286;58210;-58
2024/02/06 05:19:24;;;;;;;0.80;0.30;;;;;;;12.74;78.29;99739.06;106728;1286;58501;-58
2024/02/06 05:21:50;;;;;;;1.30;0.40;;;;;;;12.73;78.26;99734.80;106485;1286;58291;-58
2024/02/06 05:24:16;;;;;;;1.00;0.50;;;;;;;12.73;78.25;99738.76;106711;1288;59883;-60
2024/02/06 05:26:42;;;;;;;1.10;0.50;;;;;;;12.73;78.27;99740.05;106755;1287;58565;-58
2024/02/06 05:29:08;;;;;;;1.50;0.70;;;;;;;12.73;78.19;99745.62;106742;1286;58286;-58
2024/02/06 05:31:33;;;;;;;0.50;0.30;;;;;;;12.74;78.20;99742.70;106738;1285;58231;-58
2024/02/06 05:33:59;;;;;;;1.50;0.50;;;;;;;12.73;78.16;99747.67;106738;1290;58119;-58
2024/02/06 05:36:25;;;;;;;0.60;0.30;;;;;;;12.73;78.16;99747.35;106757;1286;58231;-58
2024/02/06 05:38:51;;;;;;;1.10;0.50;;;;;;;12.73;78.16;99753.40;106799;1285;58264;-58
2024/02/06 05:41:17;;;;;;;1.30;0.50;;;;;;;12.73;78.10;99757.57;106488;1285;71505;-58
2024/02/06 05:43:43;;;;;;;0.50;0.40;;;;;;;12.73;78.05;99757.63;106710;1285;58217;-58
2024/02/06 05:46:08;;;;;;;0.70;0.40;;;;;;;12.72;78.09;99755.67;106774;1285;58272;-58
2024/02/06 05:48:34;;;;;;;0.70;0.30;;;;;;;12.72;78.00;99757.52;106747;1287;58382;-58
2024/02/06 05:51:00;;;;;;;1.40;0.50;;;;;;;12.72;78.03;99764.01;106770;1285;58282;-58
2024/02/06 05:53:25;;;;;;;1.30;0.40;;;;;;;12.72;77.94;99768.45;106522;1286;59496;-58
2024/02/06 05:55:51;;;;;;;1.00;0.40;;;;;;;12.72;78.04;99760.21;106725;1289;59940;-58
2024/02/06 05:58:16;;;;;;;0.80;0.50;;;;;;;12.72;78.01;99760.83;106753;1285;58317;-58
2024/02/06 06:00:43;;;;;;;0.60;0.40;;;;;;;12.72;78.02;99765.91;106749;1286;58463;-58
2024/02/06 06:03:09;;;;;;;1.20;0.40;;;;;;;12.73;77.96;99770.16;106726;1285;58292;-58
2024/02/06 06:05:35;;;;;;;1.20;0.30;;;;;;;12.72;77.94;99770.29;106729;1288;58187;-58
2024/02/06 06:08:00;;;;;;;1.40;0.50;;;;;;;12.73;77.95;99777.04;106529;1285;58395;-58
2024/02/06 06:10:26;;;;;;;1.00;0.50;;;;;;;12.73;77.97;99774.88;106808;1285;58304;-58
2024/02/06 06:12:51;;;;;;;0.80;0.50;;;;;;;12.73;77.96;99779.73;106780;1285;71531;-58
2024/02/06 06:15:17;;;;;;;1.40;0.40;;;;;;;12.73;77.99;99783.30;106781;1286;58248;-58
2024/02/06 06:17:43;;;;;;;1.70;0.50;;;;;;;12.72;77.95;99782.34;106797;1285;58347;-58
2024/02/06 06:20:09;;;;;;;1.00;0.40;;;;;;;12.73;78.05;99783.14;106694;1286;58236;-58
2024/02/06 06:22:35;;;;;;;0.60;0.50;;;;;;;12.73;78.16;99783.90;106761;1285;58201;-58
2024/02/06 06:25:01;;;;;;;0.70;0.40;;;;;;;12.74;78.15;99784.88;106783;1286;58497;-58
2024/02/06 06:27:26;;;;;;;1.50;0.40;;;;;;;12.73;78.18;99791.05;106791;1285;58155;-58
2024/02/06 06:29:52;;;;;;;1.10;0.50;;;;;;;12.74;78.21;99790.93;106766;1285;58218;-58
2024/02/06 06:32:17;;;;;;;0.40;0.30;;;;;;;12.75;78.23;99792.27;106709;1285;58549;-58
2024/02/06 06:34:43;;;;;;;0.60;0.40;;;;;;;12.75;78.21;99794.11;106752;1285;58188;-58
2024/02/06 06:37:09;;;;;;;0.40;0.30;;;;;;;12.75;78.24;99793.28;106745;1285;58533;-58
2024/02/06 06:39:34;;;;;;;1.00;0.50;;;;;;;12.76;78.23;99794.08;106825;1285;58397;-58
2024/02/06 06:42:00;;;;;;;1.20;0.40;;;;;;;12.76;78.29;99794.40;106737;1287;73271;-58
2024/02/06 06:44:25;;;;;;;1.30;0.50;;;;;;;12.77;78.34;99799.86;106735;1285;58217;-58
2024/02/06 06:46:51;;;;;;;1.20;0.50;;;;;;;12.76;78.46;99808.94;106750;1285;58790;-58
2024/02/06 06:49:16;;;;;;;2.10;0.40;;;;;;;12.77;78.38;99810.18;106747;1285;58271;-58
2024/02/06 06:51:43;;;;;;;1.00;0.50;;;;;;;12.77;78.48;99804.55;106814;1285;58389;-58
2024/02/06 06:54:08;;;;;;;3.20;0.40;;;;;;;12.78;78.50;99804.20;106781;1285;73332;-58
2024/02/06 06:56:34;;;;;;;0.90;0.60;;;;;;;12.79;78.67;99809.66;106730;1286;58272;-58
2024/02/06 06:58:59;;;;;;;1.00;0.30;;;;;;;12.80;78.62;99806.80;106747;1285;58353;-58
2024/02/06 07:01:25;;;;;;;1.40;0.40;;;;;;;12.80;78.67;99806.20;106774;1286;59179;-58
2024/02/06 07:03:50;;;;;;;1.50;0.60;;;;;;;12.81;78.75;99806.39;106791;1286;58304;-58
2024/02/06 07:06:17;;;;;;;1.00;0.40;;;;;;;12.81;78.81;99800.70;106766;1285;62646;-58
2024/02/06 07:08:43;;;;;;;2.50;0.50;;;;;;;12.82;78.79;99800.58;106741;1285;58483;-58
2024/02/06 07:11:09;;;;;;;1.00;0.50;;;;;;;12.83;78.83;99803.34;106784;1286;58245;-58
2024/02/06 07:13:35;;;;;;;1.10;0.50;;;;;;;12.83;78.83;99803.45;106780;1285;58514;-58
2024/02/06 07:16:01;;;;;;;3.90;0.80;;;;;;;12.84;78.93;99806.23;106754;1285;58302;-59
2024/02/06 07:18:26;;;;;;;3.80;0.70;;;;;;;12.85;78.92;99808.77;106391;1285;58363;-59
2024/02/06 07:20:52;;;;;;;1.40;0.80;;;;;;;12.84;78.57;99814.55;106699;1289;58266;-59
2024/02/06 07:23:18;;;;;;;0.80;0.50;;;;;;;12.84;78.38;99818.87;106814;1286;58284;-59
2024/02/06 07:25:44;;;;;;;1.50;0.50;;;;;;;12.84;78.06;99822.82;106779;1285;72410;-59
2024/02/06 07:28:10;;;;;;;2.50;0.60;;;;;;;12.85;77.79;99814.49;106738;1286;58904;-60
2024/02/06 07:30:35;;;;;;;1.20;0.50;;;;;;;12.84;77.71;99812.55;106501;1285;58371;-60
2024/02/06 07:33:01;;;;;;;1.50;0.60;;;;;;;12.85;77.89;99814.27;106734;1285;58514;-60
2024/02/06 07:35:27;;;;;;;2.70;0.50;;;;;;;12.85;77.82;99817.29;106770;1285;58775;-60
2024/02/06 07:37:52;;;;;;;2.40;0.60;;;;;;;12.86;77.84;99816.86;106427;1286;58826;-60
2024/02/06 07:40:18;;;;;;;2.40;0.70;;;;;;;12.86;77.85;99828.59;106761;1286;61443;-60
2024/02/06 07:42:45;;;;;;;1.50;0.60;;;;;;;12.87;77.80;99823.50;106791;1286;58551;-59
2024/02/06 07:45:11;;;;;;;0.80;0.50;;;;;;;12.87;77.80;99824.45;106771;1286;58184;-60
2024/02/06 07:47:36;;;;;;;3.80;0.50;;;;;;;12.87;77.74;99820.07;106735;1285;58346;-60
2024/02/06 07:50:05;;;;;;;1.50;0.60;;;;;;;12.88;77.70;99821.05;106758;1286;58351;-60
2024/02/06 07:52:30;;;;;;;2.50;0.40;;;;;;;12.88;77.56;99815.04;106483;1286;58408;-60
2024/02/06 07:54:56;;;;;;;3.00;0.60;;;;;;;12.89;77.71;99816.77;106746;1286;58299;-60
2024/02/06 07:57:21;;;;;;;4.30;0.80;;;;;;;12.89;77.65;99821.67;106745;1285;58334;-60
2024/02/06 07:59:47;;;;;;;1.40;0.80;;;;;;;12.89;77.66;99819.79;106736;1285;58293;-60
2024/02/06 08:02:12;;;;;;;1.50;0.60;;;;;;;12.89;77.65;99825.90;106809;1285;58285;-61
2024/02/06 08:04:38;;;;;;;2.70;0.60;;;;;;;12.90;77.57;99832.48;106704;1287;58774;-59
2024/02/06 08:07:04;;;;;;;1.60;0.60;;;;;;;12.90;77.77;99841.71;106548;1286;58764;-59
2024/02/06 08:09:29;;;;;;;2.10;0.60;;;;;;;12.90;78.23;99841.17;106727;1286;58349;-59
2024/02/06 08:11:54;;;;;;;1.20;0.50;;;;;;;12.91;78.86;99837.64;106704;1285;58728;-59
2024/02/06 08:14:20;;;;;;;3.70;0.70;;;;;;;12.94;79.27;99838.14;106791;1285;58204;-59
2024/02/06 08:16:47;;;;;;;2.10;0.60;;;;;;;12.96;79.59;99836.88;106755;1286;73597;-59
2024/02/06 08:19:13;;;;;;;0.90;0.60;;;;;;;12.96;80.07;99838.98;106717;1286;58286;-59
2024/02/06 08:21:39;;;;;;;2.10;0.50;;;;;;;12.97;80.19;99845.52;106635;1286;61549;-59
2024/02/06 08:24:05;;;;;;;0.40;0.40;;;;;;;12.98;80.33;99852.70;106455;1286;58290;-59
2024/02/06 08:26:30;;;;;;;1.50;0.70;;;;;;;12.99;80.41;99855.91;106495;1287;58278;-59
2024/02/06 08:28:56;;;;;;;2.30;0.70;;;;;;;13.00;80.43;99850.29;106786;1286;58409;-59
2024/02/06 08:31:22;;;;;;;2.60;0.70;;;;;;;13.01;80.61;99846.29;106758;1286;58252;-59
2024/02/06 08:33:49;;;;;;;2.30;0.80;;;;;;;13.01;80.51;99849.73;106690;1286;61186;-59
2024/02/06 08:36:15;;;;;;;2.40;0.60;;;;;;;13.02;80.50;99857.94;106753;1286;74765;-59
2024/02/06 08:38:41;;;;;;;2.00;0.70;;;;;;;13.02;80.52;99863.02;106780;1285;58236;-59
2024/02/06 08:41:07;;;;;;;3.00;1.00;;;;;;;13.04;80.59;99859.92;106723;1286;58234;-59
2024/02/06 08:43:32;;;;;;;1.10;0.60;;;;;;;13.04;80.45;99862.88;106742;1285;58210;-59
2024/02/06 08:45:59;;;;;;;1.90;0.70;;;;;;;13.05;80.61;99866.97;106757;1285;59043;-60
2024/02/06 08:48:27;;;;;;;3.10;0.60;;;;;;;13.06;80.71;99868.15;106399;1286;58663;-59
2024/02/06 08:50:53;;;;;;;1.20;0.50;;;;;;;13.07;80.86;99874.64;106689;1286;58149;-59
2024/02/06 08:53:18;;;;;;;1.80;0.40;;;;;;;13.07;80.91;99871.17;106660;1286;58297;-59
2024/02/06 08:55:44;;;;;;;1.60;0.60;;;;;;;13.08;80.89;99878.40;106738;1286;58487;-59
2024/02/06 08:58:10;;;;;;;1.00;0.60;;;;;;;13.09;80.83;99881.48;106815;1285;58562;-59
2024/02/06 09:00:36;;;;;;;3.00;0.70;;;;;;;13.09;80.42;99884.73;106710;1285;74280;-59
2024/02/06 09:03:02;;;;;;;5.40;0.80;;;;;;;13.09;80.46;99886.83;106769;1286;58284;-59
2024/02/06 09:05:28;;;;;;;5.40;0.80;;;;;;;13.10;80.75;99885.63;106771;1285;58280;-60
2024/02/06 09:07:54;;;;;;;2.20;0.70;;;;;;;13.10;80.91;99883.94;106706;1286;58487;-59
2024/02/06 09:10:20;;;;;;;2.30;0.70;;;;;;;13.10;80.94;99885.98;106747;1286;58308;-60
2024/02/06 09:12:46;;;;;;;2.40;0.60;;;;;;;13.11;81.03;99888.26;106725;1286;58322;-59
2024/02/06 09:15:12;;;;;;;4.90;0.50;;;;;;;13.11;81.10;99879.31;106625;1286;58658;-60
2024/02/06 09:17:38;;;;;;;1.30;0.60;;;;;;;13.12;81.19;99880.13;106744;1286;59161;-60
2024/02/06 09:20:05;;;;;;;4.20;1.10;;;;;;;13.11;81.17;99874.23;106509;1286;73238;-60
2024/02/06 09:22:31;;;;;;;2.40;0.70;;;;;;;13.12;81.05;99878.67;106716;1286;74433;-60
2024/02/06 09:24:57;;;;;;;3.40;0.80;;;;;;;13.12;80.85;99874.73;106509;1286;300529;-61
2024/02/06 09:27:22;;;;;;;4.60;0.90;;;;;;;13.11;79.85;99872.13;106459;1288;58503;-61
2024/02/06 09:29:48;;;;;;;2.40;0.70;;;;;;;13.11;78.73;99865.74;106699;1286;58243;-61
2024/02/06 09:32:14;;;;;;;3.60;0.80;;;;;;;13.09;77.26;99862.96;106750;1286;58567;-61
2024/02/06 09:34:43;;;;;;;2.70;0.80;;;;;;;13.08;76.23;99858.01;106709;1286;73727;-61
2024/02/06 09:37:08;;;;;;;7.30;0.70;;;;;;;13.07;74.96;99856.95;106560;1286;60690;-61
2024/02/06 09:39:34;;;;;;;2.40;1.00;;;;;;;13.05;74.28;99851.43;106759;1286;58370;-60
2024/02/06 09:42:01;;;;;;;4.20;1.20;;;;;;;13.05;73.51;99846.85;106759;1286;58502;-61
2024/02/06 09:44:29;;;;;;;4.20;1.10;;;;;;;13.04;72.37;99843.69;106688;1286;58162;-60
2024/02/06 09:46:56;;;;;;;2.50;0.80;;;;;;;13.03;71.51;99846.13;106679;1286;72812;-60
2024/02/06 09:49:22;;;;;;;1.90;0.70;;;;;;;13.02;70.73;99848.52;106443;1286;61114;-60
2024/02/06 09:51:50;;;;;;;2.10;0.50;;;;;;;13.01;69.92;99847.17;106795;1286;58308;-60
2024/02/06 09:54:16;;;;;;;6.20;1.10;;;;;;;13.01;69.12;99847.69;106741;1286;74623;-60
2024/02/06 09:56:46;;;;;;;3.80;1.00;;;;;;;13.00;68.51;99855.21;106740;1286;58192;-60
2024/02/06 09:59:13;;;;;;;3.40;0.90;;;;;;;13.00;68.05;99854.02;106516;1286;72663;-61
2024/02/06 10:01:42;;;;;;;3.70;1.10;;;;;;;12.99;67.24;99845.43;106736;1286;59972;-60
2024/02/06 10:04:09;;;;;;;3.10;1.00;;;;;;;12.99;66.73;99847.02;106766;1286;59749;-61
2024/02/06 10:06:36;;;;;;;4.30;0.90;;;;;;;12.98;66.14;99840.86;106783;1286;74779;-60
2024/02/06 10:09:02;;;;;;;3.20;1.00;;;;;;;12.97;65.63;99838.27;106721;1286;74870;-59
2024/02/06 10:11:33;;;;;;;4.70;1.20;;;;;;;12.97;65.30;99834.87;106722;1286;58348;-60
2024/02/06 10:13:58;;;;;;;8.90;1.00;;;;;;;12.96;64.69;99831.41;106714;1287;60322;-60
2024/02/06 10:16:24;;;;;;;4.60;1.10;;;;;;;12.95;64.18;99829.75;106778;1285;58235;-61
2024/02/06 10:18:55;;;;;;;6.10;1.10;;;;;;;12.95;63.77;99824.94;106756;1285;58174;-61
2024/02/06 10:21:20;;;;;;;3.00;0.90;;;;;;;12.95;63.51;99820.83;106770;1285;74010;-60
2024/02/06 10:23:46;;;;;;;3.00;1.10;;;;;;;12.94;63.17;99821.97;106719;1285;58724;-60
2024/02/06 10:26:18;;;;;;;4.40;1.40;;;;;;;12.94;63.05;99828.15;106761;1285;58286;-60
2024/02/06 10:28:44;;;;;;;4.30;1.00;;;;;;;12.94;62.64;99822.50;106759;1285;59915;-59
2024/02/06 10:31:11;;;;;;;4.00;1.10;;;;;;;12.94;62.46;99817.05;106726;1285;58197;-60
2024/02/06 10:33:38;;;;;;;3.90;1.10;;;;;;;12.94;61.94;99815.27;106733;1286;58452;-60
2024/02/06 10:36:04;;;;;;;5.50;0.90;;;;;;;12.93;61.63;99817.71;106746;1286;58322;-58
2024/02/06 10:38:30;;;;;;;4.40;1.20;;;;;;;12.93;61.41;99819.45;106720;1285;58200;-59
2024/02/06 10:40:57;;;;;;;6.70;1.10;;;;;;;12.93;61.33;99822.58;106778;1286;58646;-60
2024/02/06 10:43:29;;;;;;;3.70;0.80;;;;;;;12.93;61.42;99824.73;106732;1286;58444;-60
2024/02/06 10:45:59;;;;;;;3.70;0.80;;;;;;;12.94;61.58;99820.84;106718;1286;74574;-61
2024/02/06 10:48:27;;;;;;;8.40;0.90;;;;;;;12.95;61.83;99821.30;106662;1286;72583;-58
2024/02/06 10:50:58;;;;;;;4.40;1.10;;;;;;;12.96;61.80;99824.20;106701;1286;61328;-60
2024/02/06 10:53:24;;;;;;;4.20;1.10;;;;;;;12.96;62.15;99817.61;106765;1287;61340;-60
2024/02/06 10:55:56;;;;;;;8.40;1.10;;;;;;;12.98;62.33;99816.13;106538;1286;58312;-60
2024/02/06 10:58:26;;;;;;;7.40;0.70;;;;;;;12.99;62.53;99807.29;106678;1286;74673;-60
2024/02/06 11:00:54;;;;;;;4.40;0.90;;;;;;;12.99;62.76;99806.25;106707;1285;72979;-59
2024/02/06 11:03:20;;;;;;;3.70;1.00;;;;;;;13.01;62.84;99807.65;106713;1285;61195;-61
2024/02/06 11:05:48;;;;;;;3.10;1.00;;;;;;;13.02;62.97;99800.81;106748;1285;60028;-60
2024/02/06 11:08:15;;;;;;;7.00;1.20;;;;;;;13.03;63.06;99800.04;106737;1286;74682;-60
2024/02/06 11:10:47;;;;;;;5.70;1.00;;;;;;;13.03;63.15;99801.17;106731;1286;73820;-60
2024/02/06 11:13:25;;;;;;;5.60;1.40;;;;;;;13.05;63.37;99802.38;106708;1285;73515;-60
2024/02/06 11:15:52;;;;;;;4.50;1.10;;;;;;;13.06;63.42;99799.27;106712;1285;61204;-60
2024/02/06 11:18:19;;;;;;;3.90;1.00;;;;;;;13.06;63.65;99799.27;106755;1285;61020;-59